sensor_id;sensor_type;location;lat;lon;timestamp;pressure;altitude;pressure_sealevel;temperature;humidity
76762;BME280;65705;51.032;13.790;2023-03-19T00:01:52;100176.56;;;9.96;50.56
76762;BME280;65705;51.032;13.790;2023-03-19T00:04:18;100179.16;;;9.96;50.60
76762;BME280;65705;51.032;13.790;2023-03-19T00:06:44;100171.47;;;9.94;50.64
76762;BME280;65705;51.032;13.790;2023-03-19T00:09:11;100176.56;;;9.96;50.40
76762;BME280;65705;51.032;13.790;2023-03-19T00:11:37;100174.75;;;9.96;50.60
76762;BME280;65705;51.032;13.790;2023-03-19T00:14:04;100174.25;;;9.93;50.67
76762;BME280;65705;51.032;13.790;2023-03-19T00:16:30;100179.78;;;9.90;50.80
76762;BME280;65705;51.032;13.790;2023-03-19T00:18:56;100179.66;;;9.91;50.89
76762;BME280;65705;51.032;13.790;2023-03-19T00:21:22;100168.78;;;9.86;50.75
76762;BME280;65705;51.032;13.790;2023-03-19T00:23:48;100168.78;;;9.86;50.83
76762;BME280;65705;51.032;13.790;2023-03-19T00:26:14;100174.53;;;9.90;50.42
76762;BME280;65705;51.032;13.790;2023-03-19T00:28:40;100172.38;;;9.85;50.77
76762;BME280;65705;51.032;13.790;2023-03-19T00:31:12;100179.88;;;9.80;50.93
76762;BME280;65705;51.032;13.790;2023-03-19T00:33:38;100177.53;;;9.77;51.19
76762;BME280;65705;51.032;13.790;2023-03-19T00:36:05;100171.50;;;9.77;50.97
76762;BME280;65705;51.032;13.790;2023-03-19T00:38:31;100172.47;;;9.76;51.12
76762;BME280;65705;51.032;13.790;2023-03-19T00:40:57;100167.38;;;9.74;51.11
76762;BME280;65705;51.032;13.790;2023-03-19T00:43:24;100166.53;;;9.74;51.26
76762;BME280;65705;51.032;13.790;2023-03-19T00:45:51;100170.47;;;9.70;50.90
76762;BME280;65705;51.032;13.790;2023-03-19T00:48:17;100167.31;;;9.66;51.23
76762;BME280;65705;51.032;13.790;2023-03-19T00:50:43;100171.72;;;9.66;51.29
76762;BME280;65705;51.032;13.790;2023-03-19T00:53:09;100175.19;;;9.66;51.15
76762;BME280;65705;51.032;13.790;2023-03-19T00:55:35;100173.22;;;9.68;51.37
76762;BME280;65705;51.032;13.790;2023-03-19T00:58:01;100163.88;;;9.66;51.27
76762;BME280;65705;51.032;13.790;2023-03-19T01:00:27;100171.38;;;9.61;51.39
76762;BME280;65705;51.032;13.790;2023-03-19T01:02:54;100174.94;;;9.59;51.22
76762;BME280;65705;51.032;13.790;2023-03-19T01:05:20;100174.50;;;9.64;51.07
76762;BME280;65705;51.032;13.790;2023-03-19T01:07:45;100168.13;;;9.67;51.20
76762;BME280;65705;51.032;13.790;2023-03-19T01:10:11;100172.56;;;9.66;51.00
76762;BME280;65705;51.032;13.790;2023-03-19T01:12:37;100174.50;;;9.64;51.18
76762;BME280;65705;51.032;13.790;2023-03-19T01:15:05;100178.59;;;9.67;50.93
76762;BME280;65705;51.032;13.790;2023-03-19T01:17:31;100185.66;;;9.66;50.67
76762;BME280;65705;51.032;13.790;2023-03-19T01:19:57;100173.09;;;9.70;51.00
76762;BME280;65705;51.032;13.790;2023-03-19T01:22:23;100164.03;;;9.64;51.34
76762;BME280;65705;51.032;13.790;2023-03-19T01:24:53;100166.25;;;9.59;51.56
76762;BME280;65705;51.032;13.790;2023-03-19T01:27:20;100164.78;;;9.56;51.43
76762;BME280;65705;51.032;13.790;2023-03-19T01:29:46;100157.34;;;9.52;51.20
76762;BME280;65705;51.032;13.790;2023-03-19T01:32:19;100152.00;;;9.53;51.33
76762;BME280;65705;51.032;13.790;2023-03-19T01:35:08;100158.78;;;9.46;51.79
76762;BME280;65705;51.032;13.790;2023-03-19T01:37:35;100152.44;;;9.49;51.50
76762;BME280;65705;51.032;13.790;2023-03-19T01:40:05;100154.22;;;9.48;51.25
76762;BME280;65705;51.032;13.790;2023-03-19T01:42:32;100152.06;;;9.44;51.64
76762;BME280;65705;51.032;13.790;2023-03-19T01:45:36;100157.97;;;9.46;51.65
76762;BME280;65705;51.032;13.790;2023-03-19T01:48:38;100158.50;;;9.49;51.61
76762;BME280;65705;51.032;13.790;2023-03-19T01:51:11;100158.19;;;9.52;51.51
76762;BME280;65705;51.032;13.790;2023-03-19T01:54:09;100153.09;;;9.51;51.25
76762;BME280;65705;51.032;13.790;2023-03-19T01:56:52;100159.47;;;9.48;51.32
76762;BME280;65705;51.032;13.790;2023-03-19T01:59:29;100162.22;;;9.47;51.52
76762;BME280;65705;51.032;13.790;2023-03-19T02:02:09;100165.00;;;9.45;51.60
76762;BME280;65705;51.032;13.790;2023-03-19T02:04:40;100167.47;;;9.47;51.40
76762;BME280;65705;51.032;13.790;2023-03-19T02:07:08;100174.22;;;9.49;51.07
76762;BME280;65705;51.032;13.790;2023-03-19T02:09:35;100174.97;;;9.42;51.55
76762;BME280;65705;51.032;13.790;2023-03-19T02:12:01;100174.28;;;9.40;51.84
76762;BME280;65705;51.032;13.790;2023-03-19T02:14:27;100169.50;;;9.35;51.50
76762;BME280;65705;51.032;13.790;2023-03-19T02:16:54;100160.66;;;9.36;51.48
76762;BME280;65705;51.032;13.790;2023-03-19T02:19:34;100158.25;;;9.43;51.37
76762;BME280;65705;51.032;13.790;2023-03-19T02:22:03;100159.09;;;9.43;51.27
76762;BME280;65705;51.032;13.790;2023-03-19T02:24:35;100159.25;;;9.42;51.34
76762;BME280;65705;51.032;13.790;2023-03-19T02:27:10;100148.09;;;9.40;51.31
76762;BME280;65705;51.032;13.790;2023-03-19T02:29:40;100151.69;;;9.39;51.20
76762;BME280;65705;51.032;13.790;2023-03-19T02:32:06;100152.75;;;9.46;50.91
76762;BME280;65705;51.032;13.790;2023-03-19T02:34:39;100158.41;;;9.41;50.92
76762;BME280;65705;51.032;13.790;2023-03-19T02:39:42;100160.34;;;9.39;50.86
76762;BME280;65705;51.032;13.790;2023-03-19T02:42:12;100159.75;;;9.45;50.78
76762;BME280;65705;51.032;13.790;2023-03-19T02:44:39;100163.91;;;9.48;50.66
76762;BME280;65705;51.032;13.790;2023-03-19T02:47:05;100158.56;;;9.40;50.56
76762;BME280;65705;51.032;13.790;2023-03-19T02:49:31;100161.50;;;9.37;50.66
76762;BME280;65705;51.032;13.790;2023-03-19T02:51:57;100160.22;;;9.41;50.77
76762;BME280;65705;51.032;13.790;2023-03-19T02:54:23;100160.59;;;9.46;50.82
76762;BME280;65705;51.032;13.790;2023-03-19T02:56:49;100153.31;;;9.40;50.59
76762;BME280;65705;51.032;13.790;2023-03-19T02:59:17;100158.03;;;9.36;50.92
76762;BME280;65705;51.032;13.790;2023-03-19T03:01:43;100146.88;;;9.34;50.63
76762;BME280;65705;51.032;13.790;2023-03-19T03:04:08;100149.34;;;9.36;50.72
76762;BME280;65705;51.032;13.790;2023-03-19T03:06:37;100149.81;;;9.31;51.23
76762;BME280;65705;51.032;13.790;2023-03-19T03:09:03;100149.44;;;9.26;51.30
76762;BME280;65705;51.032;13.790;2023-03-19T03:11:29;100144.94;;;9.36;50.65
76762;BME280;65705;51.032;13.790;2023-03-19T03:13:55;100159.97;;;9.34;50.87
76762;BME280;65705;51.032;13.790;2023-03-19T03:16:22;100161.50;;;9.37;50.64
76762;BME280;65705;51.032;13.790;2023-03-19T03:18:48;100173.38;;;9.31;50.73
76762;BME280;65705;51.032;13.790;2023-03-19T03:21:13;100180.56;;;9.29;50.50
76762;BME280;65705;51.032;13.790;2023-03-19T03:23:39;100187.59;;;9.29;50.70
76762;BME280;65705;51.032;13.790;2023-03-19T03:26:05;100189.69;;;9.25;50.79
76762;BME280;65705;51.032;13.790;2023-03-19T03:28:32;100192.59;;;9.22;51.21
76762;BME280;65705;51.032;13.790;2023-03-19T03:30:58;100193.88;;;9.18;51.21
76762;BME280;65705;51.032;13.790;2023-03-19T03:33:25;100196.44;;;9.28;51.22
76762;BME280;65705;51.032;13.790;2023-03-19T03:35:51;100205.13;;;9.28;50.81
76762;BME280;65705;51.032;13.790;2023-03-19T03:38:17;100204.19;;;9.20;51.30
76762;BME280;65705;51.032;13.790;2023-03-19T03:40:43;100194.19;;;9.15;51.67
76762;BME280;65705;51.032;13.790;2023-03-19T03:43:09;100189.53;;;9.09;51.40
76762;BME280;65705;51.032;13.790;2023-03-19T03:45:35;100176.34;;;9.01;51.68
76762;BME280;65705;51.032;13.790;2023-03-19T03:48:02;100181.59;;;9.01;51.76
76762;BME280;65705;51.032;13.790;2023-03-19T03:50:28;100183.91;;;9.04;51.70
76762;BME280;65705;51.032;13.790;2023-03-19T03:52:58;100187.50;;;9.03;51.34
76762;BME280;65705;51.032;13.790;2023-03-19T03:55:24;100199.31;;;9.07;51.24
76762;BME280;65705;51.032;13.790;2023-03-19T03:57:50;100194.22;;;9.06;51.63
76762;BME280;65705;51.032;13.790;2023-03-19T04:00:16;100195.63;;;9.00;52.25
76762;BME280;65705;51.032;13.790;2023-03-19T04:02:43;100198.94;;;9.02;51.86
76762;BME280;65705;51.032;13.790;2023-03-19T04:05:13;100199.50;;;8.96;52.08
76762;BME280;65705;51.032;13.790;2023-03-19T04:07:38;100194.56;;;8.93;51.82
76762;BME280;65705;51.032;13.790;2023-03-19T04:10:06;100194.03;;;8.90;51.78
76762;BME280;65705;51.032;13.790;2023-03-19T04:12:32;100189.78;;;8.89;51.73
76762;BME280;65705;51.032;13.790;2023-03-19T04:14:59;100195.72;;;8.91;51.76
76762;BME280;65705;51.032;13.790;2023-03-19T04:17:25;100193.81;;;8.83;51.85
76762;BME280;65705;51.032;13.790;2023-03-19T04:19:51;100191.34;;;8.82;51.76
76762;BME280;65705;51.032;13.790;2023-03-19T04:22:16;100187.06;;;8.81;51.82
76762;BME280;65705;51.032;13.790;2023-03-19T04:24:42;100189.00;;;8.79;51.72
76762;BME280;65705;51.032;13.790;2023-03-19T04:27:09;100185.56;;;8.78;51.88
76762;BME280;65705;51.032;13.790;2023-03-19T04:29:37;100184.44;;;8.81;51.65
76762;BME280;65705;51.032;13.790;2023-03-19T04:32:03;100189.16;;;8.77;51.84
76762;BME280;65705;51.032;13.790;2023-03-19T04:34:29;100192.16;;;8.82;51.58
76762;BME280;65705;51.032;13.790;2023-03-19T04:36:56;100195.06;;;8.79;51.74
76762;BME280;65705;51.032;13.790;2023-03-19T04:39:22;100184.81;;;8.86;51.67
76762;BME280;65705;51.032;13.790;2023-03-19T04:41:50;100185.13;;;8.83;51.48
76762;BME280;65705;51.032;13.790;2023-03-19T04:44:36;100188.19;;;8.78;51.78
76762;BME280;65705;51.032;13.790;2023-03-19T04:47:04;100185.69;;;8.77;51.69
76762;BME280;65705;51.032;13.790;2023-03-19T04:49:39;100189.81;;;8.79;51.56
76762;BME280;65705;51.032;13.790;2023-03-19T04:52:06;100187.97;;;8.89;51.29
76762;BME280;65705;51.032;13.790;2023-03-19T04:54:32;100178.78;;;8.85;51.25
76762;BME280;65705;51.032;13.790;2023-03-19T04:56:58;100185.44;;;8.80;51.11
76762;BME280;65705;51.032;13.790;2023-03-19T04:59:28;100194.22;;;8.79;51.71
76762;BME280;65705;51.032;13.790;2023-03-19T05:01:54;100197.69;;;8.79;51.61
76762;BME280;65705;51.032;13.790;2023-03-19T05:04:21;100191.38;;;8.72;52.25
76762;BME280;65705;51.032;13.790;2023-03-19T05:06:49;100190.69;;;8.70;51.73
76762;BME280;65705;51.032;13.790;2023-03-19T05:09:15;100197.88;;;8.68;51.83
76762;BME280;65705;51.032;13.790;2023-03-19T05:11:41;100208.63;;;8.65;51.85
76762;BME280;65705;51.032;13.790;2023-03-19T05:14:13;100202.41;;;8.66;52.21
76762;BME280;65705;51.032;13.790;2023-03-19T05:17:04;100199.41;;;8.61;52.22
76762;BME280;65705;51.032;13.790;2023-03-19T05:19:45;100203.00;;;8.60;51.82
76762;BME280;65705;51.032;13.790;2023-03-19T05:22:12;100199.97;;;8.55;52.25
76762;BME280;65705;51.032;13.790;2023-03-19T05:24:38;100201.63;;;8.56;51.99
76762;BME280;65705;51.032;13.790;2023-03-19T05:27:04;100192.81;;;8.57;51.67
76762;BME280;65705;51.032;13.790;2023-03-19T05:29:42;100194.22;;;8.79;50.98
76762;BME280;65705;51.032;13.790;2023-03-19T05:32:28;100200.22;;;8.71;51.27
76762;BME280;65705;51.032;13.790;2023-03-19T05:34:56;100198.72;;;8.59;51.50
76762;BME280;65705;51.032;13.790;2023-03-19T05:37:23;100196.25;;;8.58;51.60
76762;BME280;65705;51.032;13.790;2023-03-19T05:39:54;100200.41;;;8.60;51.45
76762;BME280;65705;51.032;13.790;2023-03-19T05:42:21;100202.59;;;8.55;51.69
76762;BME280;65705;51.032;13.790;2023-03-19T05:44:47;100207.16;;;8.53;52.00
76762;BME280;65705;51.032;13.790;2023-03-19T05:47:23;100199.84;;;8.57;51.80
76762;BME280;65705;51.032;13.790;2023-03-19T05:49:52;100205.09;;;8.57;51.88
76762;BME280;65705;51.032;13.790;2023-03-19T05:52:18;100206.31;;;8.62;51.01
76762;BME280;65705;51.032;13.790;2023-03-19T05:54:44;100206.00;;;8.65;51.41
76762;BME280;65705;51.032;13.790;2023-03-19T05:57:29;100211.09;;;8.67;51.19
76762;BME280;65705;51.032;13.790;2023-03-19T06:00:03;100221.69;;;8.75;50.76
76762;BME280;65705;51.032;13.790;2023-03-19T06:02:31;100220.56;;;8.77;51.02
76762;BME280;65705;51.032;13.790;2023-03-19T06:05:13;100213.22;;;8.81;50.78
76762;BME280;65705;51.032;13.790;2023-03-19T06:07:38;100223.56;;;8.82;50.77
76762;BME280;65705;51.032;13.790;2023-03-19T06:10:10;100222.44;;;8.85;50.45
76762;BME280;65705;51.032;13.790;2023-03-19T06:12:37;100235.09;;;8.89;50.34
76762;BME280;65705;51.032;13.790;2023-03-19T06:15:17;100231.94;;;8.86;50.46
76762;BME280;65705;51.032;13.790;2023-03-19T06:17:43;100229.44;;;8.94;50.34
76762;BME280;65705;51.032;13.790;2023-03-19T06:20:11;100220.44;;;8.96;49.91
76762;BME280;65705;51.032;13.790;2023-03-19T06:22:39;100221.28;;;8.97;50.08
76762;BME280;65705;51.032;13.790;2023-03-19T06:25:05;100222.41;;;8.94;49.89
76762;BME280;65705;51.032;13.790;2023-03-19T06:27:34;100220.75;;;8.93;50.03
76762;BME280;65705;51.032;13.790;2023-03-19T06:30:14;100214.41;;;8.96;50.08
76762;BME280;65705;51.032;13.790;2023-03-19T06:32:41;100216.56;;;9.00;49.86
76762;BME280;65705;51.032;13.790;2023-03-19T06:35:09;100221.75;;;9.10;49.77
76762;BME280;65705;51.032;13.790;2023-03-19T06:37:35;100218.03;;;9.12;49.56
76762;BME280;65705;51.032;13.790;2023-03-19T06:40:02;100222.38;;;9.21;49.47
76762;BME280;65705;51.032;13.790;2023-03-19T06:42:29;100213.94;;;9.27;49.20
76762;BME280;65705;51.032;13.790;2023-03-19T06:44:55;100219.16;;;9.27;49.23
76762;BME280;65705;51.032;13.790;2023-03-19T06:47:21;100211.41;;;9.35;48.81
76762;BME280;65705;51.032;13.790;2023-03-19T06:49:47;100220.31;;;9.42;48.97
76762;BME280;65705;51.032;13.790;2023-03-19T06:52:13;100221.22;;;9.51;48.53
76762;BME280;65705;51.032;13.790;2023-03-19T06:54:39;100215.00;;;9.52;48.54
76762;BME280;65705;51.032;13.790;2023-03-19T06:57:05;100222.41;;;9.56;48.35
76762;BME280;65705;51.032;13.790;2023-03-19T06:59:31;100227.88;;;9.63;48.43
76762;BME280;65705;51.032;13.790;2023-03-19T07:01:57;100226.47;;;9.69;48.07
76762;BME280;65705;51.032;13.790;2023-03-19T07:04:22;100225.41;;;9.79;47.74
76762;BME280;65705;51.032;13.790;2023-03-19T07:06:48;100222.34;;;9.84;47.57
76762;BME280;65705;51.032;13.790;2023-03-19T07:09:14;100231.91;;;9.93;47.63
76762;BME280;65705;51.032;13.790;2023-03-19T07:11:40;100233.13;;;9.98;47.26
76762;BME280;65705;51.032;13.790;2023-03-19T07:14:06;100237.16;;;10.10;47.02
76762;BME280;65705;51.032;13.790;2023-03-19T07:16:32;100246.50;;;10.13;46.74
76762;BME280;65705;51.032;13.790;2023-03-19T07:18:58;100242.78;;;10.15;46.91
76762;BME280;65705;51.032;13.790;2023-03-19T07:21:23;100246.38;;;10.14;46.96
76762;BME280;65705;51.032;13.790;2023-03-19T07:23:49;100255.44;;;10.20;47.05
76762;BME280;65705;51.032;13.790;2023-03-19T07:26:16;100253.38;;;10.31;46.50
76762;BME280;65705;51.032;13.790;2023-03-19T07:28:42;100260.81;;;10.36;46.52
76762;BME280;65705;51.032;13.790;2023-03-19T07:31:07;100252.63;;;10.39;46.37
76762;BME280;65705;51.032;13.790;2023-03-19T07:33:33;100252.66;;;10.47;46.22
76762;BME280;65705;51.032;13.790;2023-03-19T07:35:59;100252.03;;;10.53;46.38
76762;BME280;65705;51.032;13.790;2023-03-19T07:38:25;100254.84;;;10.59;46.17
76762;BME280;65705;51.032;13.790;2023-03-19T07:40:51;100244.75;;;10.65;46.08
76762;BME280;65705;51.032;13.790;2023-03-19T07:43:20;100249.25;;;10.80;45.96
76762;BME280;65705;51.032;13.790;2023-03-19T07:45:45;100256.84;;;10.91;45.75
76762;BME280;65705;51.032;13.790;2023-03-19T07:48:11;100247.47;;;10.89;45.29
76762;BME280;65705;51.032;13.790;2023-03-19T07:50:38;100250.81;;;10.99;45.18
76762;BME280;65705;51.032;13.790;2023-03-19T07:53:03;100243.94;;;11.06;45.11
76762;BME280;65705;51.032;13.790;2023-03-19T07:55:29;100243.00;;;11.15;45.21
76762;BME280;65705;51.032;13.790;2023-03-19T07:57:55;100240.72;;;11.20;44.48
76762;BME280;65705;51.032;13.790;2023-03-19T08:00:21;100244.34;;;11.27;44.90
76762;BME280;65705;51.032;13.790;2023-03-19T08:02:47;100243.19;;;11.29;44.62
76762;BME280;65705;51.032;13.790;2023-03-19T08:05:13;100249.78;;;11.33;45.07
76762;BME280;65705;51.032;13.790;2023-03-19T08:07:39;100252.09;;;11.44;44.84
76762;BME280;65705;51.032;13.790;2023-03-19T08:10:07;100247.38;;;11.56;44.54
76762;BME280;65705;51.032;13.790;2023-03-19T08:12:33;100245.91;;;11.61;44.09
76762;BME280;65705;51.032;13.790;2023-03-19T08:15:07;100239.38;;;11.74;43.90
76762;BME280;65705;51.032;13.790;2023-03-19T08:17:33;100242.16;;;11.80;43.83
76762;BME280;65705;51.032;13.790;2023-03-19T08:20:11;100246.94;;;11.85;44.01
76762;BME280;65705;51.032;13.790;2023-03-19T08:22:37;100239.38;;;11.90;43.69
76762;BME280;65705;51.032;13.790;2023-03-19T08:25:05;100246.09;;;12.08;43.63
76762;BME280;65705;51.032;13.790;2023-03-19T08:27:31;100253.53;;;12.13;43.51
76762;BME280;65705;51.032;13.790;2023-03-19T08:30:01;100257.78;;;12.22;43.38
76762;BME280;65705;51.032;13.790;2023-03-19T08:32:29;100264.38;;;12.26;43.29
76762;BME280;65705;51.032;13.790;2023-03-19T08:34:54;100259.94;;;12.34;42.96
76762;BME280;65705;51.032;13.790;2023-03-19T08:37:20;100260.75;;;12.35;43.15
76762;BME280;65705;51.032;13.790;2023-03-19T08:39:49;100257.47;;;12.33;43.06
76762;BME280;65705;51.032;13.790;2023-03-19T08:42:15;100259.41;;;12.39;43.30
76762;BME280;65705;51.032;13.790;2023-03-19T08:44:41;100253.19;;;12.40;43.03
76762;BME280;65705;51.032;13.790;2023-03-19T08:47:07;100264.84;;;12.45;43.19
76762;BME280;65705;51.032;13.790;2023-03-19T08:49:32;100268.44;;;12.44;43.19
76762;BME280;65705;51.032;13.790;2023-03-19T08:51:59;100257.63;;;12.47;42.51
76762;BME280;65705;51.032;13.790;2023-03-19T08:54:25;100257.94;;;12.52;42.90
76762;BME280;65705;51.032;13.790;2023-03-19T08:56:51;100261.34;;;12.61;42.96
76762;BME280;65705;51.032;13.790;2023-03-19T08:59:16;100252.63;;;12.68;42.67
76762;BME280;65705;51.032;13.790;2023-03-19T09:01:42;100263.28;;;12.75;42.28
76762;BME280;65705;51.032;13.790;2023-03-19T09:04:08;100261.50;;;12.67;42.52
76762;BME280;65705;51.032;13.790;2023-03-19T09:06:34;100259.16;;;12.81;42.70
76762;BME280;65705;51.032;13.790;2023-03-19T09:09:00;100257.00;;;12.84;42.22
76762;BME280;65705;51.032;13.790;2023-03-19T09:11:25;100259.63;;;12.92;41.88
76762;BME280;65705;51.032;13.790;2023-03-19T09:13:51;100271.31;;;12.98;42.01
76762;BME280;65705;51.032;13.790;2023-03-19T09:16:17;100267.81;;;13.05;42.17
76762;BME280;65705;51.032;13.790;2023-03-19T09:18:43;100266.50;;;13.09;42.17
76762;BME280;65705;51.032;13.790;2023-03-19T09:21:09;100269.63;;;13.13;42.03
76762;BME280;65705;51.032;13.790;2023-03-19T09:23:34;100266.63;;;13.16;42.10
76762;BME280;65705;51.032;13.790;2023-03-19T09:26:00;100266.13;;;13.20;41.56
76762;BME280;65705;51.032;13.790;2023-03-19T09:28:26;100268.41;;;13.23;41.55
76762;BME280;65705;51.032;13.790;2023-03-19T09:30:52;100265.09;;;13.29;41.67
76762;BME280;65705;51.032;13.790;2023-03-19T09:33:19;100263.91;;;13.32;42.22
76762;BME280;65705;51.032;13.790;2023-03-19T09:35:50;100264.06;;;13.38;42.37
76762;BME280;65705;51.032;13.790;2023-03-19T09:38:20;100258.16;;;13.36;41.40
76762;BME280;65705;51.032;13.790;2023-03-19T09:40:48;100258.72;;;13.46;41.52
76762;BME280;65705;51.032;13.790;2023-03-19T09:45:44;100260.25;;;13.41;41.85
76762;BME280;65705;51.032;13.790;2023-03-19T09:48:18;100258.72;;;13.46;41.71
76762;BME280;65705;51.032;13.790;2023-03-19T09:50:46;100252.41;;;13.55;41.55
76762;BME280;65705;51.032;13.790;2023-03-19T09:53:46;100244.97;;;13.59;41.23
76762;BME280;65705;51.032;13.790;2023-03-19T09:56:14;100241.19;;;13.61;41.79
76762;BME280;65705;51.032;13.790;2023-03-19T09:58:41;100247.75;;;13.65;41.82
76762;BME280;65705;51.032;13.790;2023-03-19T10:01:22;100230.88;;;13.74;41.91
76762;BME280;65705;51.032;13.790;2023-03-19T10:06:43;100233.97;;;14.01;41.55
76762;BME280;65705;51.032;13.790;2023-03-19T10:10:42;100244.09;;;14.12;41.34
76762;BME280;65705;51.032;13.790;2023-03-19T10:15:21;100236.81;;;14.36;41.03
76762;BME280;65705;51.032;13.790;2023-03-19T10:20:28;100229.53;;;14.53;39.92
76762;BME280;65705;51.032;13.790;2023-03-19T10:25:55;100237.75;;;14.72;40.25
76762;BME280;65705;51.032;13.790;2023-03-19T10:28:21;100240.31;;;14.81;40.07
76762;BME280;65705;51.032;13.790;2023-03-19T10:34:16;100240.00;;;15.05;40.29
76762;BME280;65705;51.032;13.790;2023-03-19T10:36:44;100244.31;;;15.06;39.81
76762;BME280;65705;51.032;13.790;2023-03-19T10:39:10;100241.72;;;15.12;39.89
76762;BME280;65705;51.032;13.790;2023-03-19T10:44:08;100229.78;;;15.16;39.63
76762;BME280;65705;51.032;13.790;2023-03-19T10:46:39;100240.47;;;15.08;39.78
76762;BME280;65705;51.032;13.790;2023-03-19T10:49:12;100231.53;;;15.09;39.98
76762;BME280;65705;51.032;13.790;2023-03-19T10:51:42;100234.53;;;15.06;39.87
76762;BME280;65705;51.032;13.790;2023-03-19T10:54:27;100238.56;;;14.88;40.11
76762;BME280;65705;51.032;13.790;2023-03-19T10:56:57;100229.56;;;14.97;40.12
76762;BME280;65705;51.032;13.790;2023-03-19T10:59:32;100229.91;;;14.94;40.67
76762;BME280;65705;51.032;13.790;2023-03-19T11:02:21;100227.06;;;14.95;40.50
76762;BME280;65705;51.032;13.790;2023-03-19T11:04:56;100232.34;;;14.95;40.83
76762;BME280;65705;51.032;13.790;2023-03-19T11:07:31;100228.91;;;14.95;40.71
76762;BME280;65705;51.032;13.790;2023-03-19T11:09:58;100236.00;;;15.09;40.44
76762;BME280;65705;51.032;13.790;2023-03-19T11:12:30;100225.50;;;15.15;40.26
76762;BME280;65705;51.032;13.790;2023-03-19T11:14:59;100232.88;;;15.20;40.03
76762;BME280;65705;51.032;13.790;2023-03-19T11:17:39;100230.94;;;15.28;40.53
76762;BME280;65705;51.032;13.790;2023-03-19T11:22:47;100221.63;;;15.47;40.27
76762;BME280;65705;51.032;13.790;2023-03-19T11:25:17;100216.53;;;15.66;40.03
76762;BME280;65705;51.032;13.790;2023-03-19T11:27:57;100201.91;;;15.70;40.49
76762;BME280;65705;51.032;13.790;2023-03-19T11:30:23;100209.84;;;15.70;39.18
76762;BME280;65705;51.032;13.790;2023-03-19T11:32:58;100212.94;;;15.74;39.01
76762;BME280;65705;51.032;13.790;2023-03-19T11:35:41;100213.66;;;15.82;39.65
76762;BME280;65705;51.032;13.790;2023-03-19T11:41:09;100215.88;;;16.07;39.42
76762;BME280;65705;51.032;13.790;2023-03-19T11:43:57;100207.22;;;16.19;39.43
76762;BME280;65705;51.032;13.790;2023-03-19T11:49:45;100204.75;;;16.45;38.58
76762;BME280;65705;51.032;13.790;2023-03-19T11:57:07;100199.84;;;16.70;38.53
76762;BME280;65705;51.032;13.790;2023-03-19T12:08:15;100202.81;;;16.95;39.02
76762;BME280;65705;51.032;13.790;2023-03-19T12:11:14;100209.38;;;17.05;38.67
76762;BME280;65705;51.032;13.790;2023-03-19T12:30:11;100207.91;;;16.96;38.49
76762;BME280;65705;51.032;13.790;2023-03-19T12:35:34;100208.31;;;16.93;38.87
76762;BME280;65705;51.032;13.790;2023-03-19T12:38:26;100199.97;;;16.96;38.83
76762;BME280;65705;51.032;13.790;2023-03-19T12:43:35;100193.88;;;17.02;39.07
76762;BME280;65705;51.032;13.790;2023-03-19T12:46:19;100189.19;;;17.04;38.67
76762;BME280;65705;51.032;13.790;2023-03-19T12:49:02;100196.53;;;17.02;38.35
76762;BME280;65705;51.032;13.790;2023-03-19T12:51:35;100194.09;;;17.07;38.61
76762;BME280;65705;51.032;13.790;2023-03-19T12:59:25;100199.88;;;17.24;38.12
76762;BME280;65705;51.032;13.790;2023-03-19T13:04:55;100193.31;;;17.26;38.45
76762;BME280;65705;51.032;13.790;2023-03-19T13:07:50;100200.28;;;17.27;38.45
76762;BME280;65705;51.032;13.790;2023-03-19T13:10:19;100203.56;;;17.29;38.34
76762;BME280;65705;51.032;13.790;2023-03-19T13:12:47;100190.09;;;17.37;38.34
76762;BME280;65705;51.032;13.790;2023-03-19T13:15:26;100194.78;;;17.22;38.03
76762;BME280;65705;51.032;13.790;2023-03-19T13:21:28;100206.38;;;17.15;38.32
76762;BME280;65705;51.032;13.790;2023-03-19T13:23:56;100197.22;;;17.17;38.32
76762;BME280;65705;51.032;13.790;2023-03-19T13:26:24;100199.59;;;17.06;38.44
76762;BME280;65705;51.032;13.790;2023-03-19T13:29:08;100200.44;;;17.06;39.26
76762;BME280;65705;51.032;13.790;2023-03-19T13:31:40;100193.31;;;17.13;39.21
76762;BME280;65705;51.032;13.790;2023-03-19T13:34:20;100196.38;;;17.23;39.25
76762;BME280;65705;51.032;13.790;2023-03-19T13:36:53;100193.31;;;17.26;38.59
76762;BME280;65705;51.032;13.790;2023-03-19T13:39:24;100191.50;;;17.20;38.65
76762;BME280;65705;51.032;13.790;2023-03-19T13:41:56;100186.59;;;17.24;38.52
76762;BME280;65705;51.032;13.790;2023-03-19T13:44:37;100189.25;;;17.24;39.11
76762;BME280;65705;51.032;13.790;2023-03-19T13:55:52;100191.28;;;17.15;39.65
76762;BME280;65705;51.032;13.790;2023-03-19T13:58:22;100189.81;;;17.13;39.59
76762;BME280;65705;51.032;13.790;2023-03-19T14:03:59;100182.66;;;17.07;39.65
76762;BME280;65705;51.032;13.790;2023-03-19T14:06:47;100186.75;;;17.09;40.02
76762;BME280;65705;51.032;13.790;2023-03-19T14:09:33;100195.75;;;17.15;39.99
76762;BME280;65705;51.032;13.790;2023-03-19T14:14:54;100187.19;;;17.19;39.78
76762;BME280;65705;51.032;13.790;2023-03-19T14:19:51;100190.03;;;17.11;39.85
76762;BME280;65705;51.032;13.790;2023-03-19T14:25:13;100190.81;;;17.05;40.17
76762;BME280;65705;51.032;13.790;2023-03-19T14:27:46;100183.66;;;16.99;40.29
76762;BME280;65705;51.032;13.790;2023-03-19T14:30:34;100194.28;;;16.99;40.32
76762;BME280;65705;51.032;13.790;2023-03-19T14:33:04;100190.38;;;16.95;40.98
76762;BME280;65705;51.032;13.790;2023-03-19T14:35:40;100192.41;;;16.93;40.53
76762;BME280;65705;51.032;13.790;2023-03-19T14:38:34;100191.78;;;16.91;40.68